sensor_id;sensor_type;location;lat;lon;timestamp;P1;durP1;ratioP1;P2;durP2;ratioP2
75647;SDS011;64238;51.466;7.260;2022-10-19T00:00:46;5.18;;;2.25;;
75647;SDS011;64238;51.466;7.260;2022-10-19T00:03:12;5.72;;;2.35;;
75647;SDS011;64238;51.466;7.260;2022-10-19T00:05:38;5.90;;;2.28;;
75647;SDS011;64238;51.466;7.260;2022-10-19T00:08:04;6.75;;;2.50;;
75647;SDS011;64238;51.466;7.260;2022-10-19T00:10:29;5.28;;;2.03;;
75647;SDS011;64238;51.466;7.260;2022-10-19T00:12:55;5.90;;;2.40;;
75647;SDS011;64238;51.466;7.260;2022-10-19T00:15:20;6.30;;;2.38;;
75647;SDS011;64238;51.466;7.260;2022-10-19T00:17:46;5.63;;;2.20;;
75647;SDS011;64238;51.466;7.260;2022-10-19T00:20:11;6.35;;;2.53;;
75647;SDS011;64238;51.466;7.260;2022-10-19T00:22:37;4.95;;;2.20;;
75647;SDS011;64238;51.466;7.260;2022-10-19T00:25:03;5.43;;;2.17;;
75647;SDS011;64238;51.466;7.260;2022-10-19T00:27:29;5.90;;;2.22;;
75647;SDS011;64238;51.466;7.260;2022-10-19T00:29:54;5.80;;;2.20;;
75647;SDS011;64238;51.466;7.260;2022-10-19T00:32:20;7.82;;;2.40;;
75647;SDS011;64238;51.466;7.260;2022-10-19T00:34:46;6.10;;;2.38;;
75647;SDS011;64238;51.466;7.260;2022-10-19T00:37:11;5.30;;;2.30;;
75647;SDS011;64238;51.466;7.260;2022-10-19T00:39:37;5.88;;;2.40;;
75647;SDS011;64238;51.466;7.260;2022-10-19T00:42:03;4.88;;;2.08;;
75647;SDS011;64238;51.466;7.260;2022-10-19T00:46:56;5.30;;;2.35;;
75647;SDS011;64238;51.466;7.260;2022-10-19T00:49:27;6.57;;;2.50;;
75647;SDS011;64238;51.466;7.260;2022-10-19T00:52:17;6.22;;;2.50;;
75647;SDS011;64238;51.466;7.260;2022-10-19T00:54:43;6.47;;;2.50;;
75647;SDS011;64238;51.466;7.260;2022-10-19T00:57:11;5.72;;;2.35;;
75647;SDS011;64238;51.466;7.260;2022-10-19T00:59:37;5.55;;;2.28;;
75647;SDS011;64238;51.466;7.260;2022-10-19T01:02:04;5.43;;;2.60;;
75647;SDS011;64238;51.466;7.260;2022-10-19T01:04:31;6.03;;;2.40;;
75647;SDS011;64238;51.466;7.260;2022-10-19T01:07:00;5.97;;;2.33;;
75647;SDS011;64238;51.466;7.260;2022-10-19T01:09:28;5.70;;;2.53;;
75647;SDS011;64238;51.466;7.260;2022-10-19T01:18:03;6.25;;;2.67;;
75647;SDS011;64238;51.466;7.260;2022-10-19T01:26:58;6.25;;;2.35;;
75647;SDS011;64238;51.466;7.260;2022-10-19T01:32:53;6.40;;;2.45;;
75647;SDS011;64238;51.466;7.260;2022-10-19T01:35:37;5.97;;;2.50;;
75647;SDS011;64238;51.466;7.260;2022-10-19T01:38:16;4.82;;;1.92;;
75647;SDS011;64238;51.466;7.260;2022-10-19T01:40:53;6.45;;;2.50;;
75647;SDS011;64238;51.466;7.260;2022-10-19T01:46:22;5.70;;;2.50;;
75647;SDS011;64238;51.466;7.260;2022-10-19T01:48:55;5.55;;;2.55;;
75647;SDS011;64238;51.466;7.260;2022-10-19T01:51:30;6.43;;;2.33;;
75647;SDS011;64238;51.466;7.260;2022-10-19T01:54:00;5.18;;;2.10;;
75647;SDS011;64238;51.466;7.260;2022-10-19T01:56:30;5.38;;;2.58;;
75647;SDS011;64238;51.466;7.260;2022-10-19T01:58:58;6.45;;;2.40;;
75647;SDS011;64238;51.466;7.260;2022-10-19T02:01:28;6.13;;;2.63;;
75647;SDS011;64238;51.466;7.260;2022-10-19T02:03:57;5.85;;;2.55;;
75647;SDS011;64238;51.466;7.260;2022-10-19T02:06:24;5.47;;;2.28;;
75647;SDS011;64238;51.466;7.260;2022-10-19T02:08:51;5.20;;;2.28;;
75647;SDS011;64238;51.466;7.260;2022-10-19T02:11:18;5.60;;;2.05;;
75647;SDS011;64238;51.466;7.260;2022-10-19T02:13:46;4.80;;;2.40;;
75647;SDS011;64238;51.466;7.260;2022-10-19T02:16:36;5.78;;;2.45;;
75647;SDS011;64238;51.466;7.260;2022-10-19T02:19:07;5.82;;;2.33;;
75647;SDS011;64238;51.466;7.260;2022-10-19T02:21:36;5.38;;;2.42;;
75647;SDS011;64238;51.466;7.260;2022-10-19T02:24:02;5.47;;;2.38;;
75647;SDS011;64238;51.466;7.260;2022-10-19T02:26:27;5.70;;;2.35;;
75647;SDS011;64238;51.466;7.260;2022-10-19T02:28:53;5.20;;;2.40;;
75647;SDS011;64238;51.466;7.260;2022-10-19T02:31:20;5.38;;;2.40;;
75647;SDS011;64238;51.466;7.260;2022-10-19T02:33:46;5.68;;;2.55;;
75647;SDS011;64238;51.466;7.260;2022-10-19T02:36:11;5.22;;;2.40;;
75647;SDS011;64238;51.466;7.260;2022-10-19T02:38:37;7.25;;;2.45;;
75647;SDS011;64238;51.466;7.260;2022-10-19T02:41:16;6.05;;;2.67;;
75647;SDS011;64238;51.466;7.260;2022-10-19T02:43:47;5.28;;;2.40;;
75647;SDS011;64238;51.466;7.260;2022-10-19T02:46:26;6.07;;;2.60;;
75647;SDS011;64238;51.466;7.260;2022-10-19T02:49:27;5.38;;;2.42;;
75647;SDS011;64238;51.466;7.260;2022-10-19T02:51:58;7.18;;;2.55;;
75647;SDS011;64238;51.466;7.260;2022-10-19T02:54:29;5.90;;;2.40;;
75647;SDS011;64238;51.466;7.260;2022-10-19T02:56:55;6.40;;;2.60;;
75647;SDS011;64238;51.466;7.260;2022-10-19T02:59:21;6.03;;;2.63;;
75647;SDS011;64238;51.466;7.260;2022-10-19T03:01:47;5.40;;;2.17;;
75647;SDS011;64238;51.466;7.260;2022-10-19T03:04:13;6.32;;;2.60;;
75647;SDS011;64238;51.466;7.260;2022-10-19T03:06:39;6.20;;;2.30;;
75647;SDS011;64238;51.466;7.260;2022-10-19T03:09:04;6.10;;;2.45;;
75647;SDS011;64238;51.466;7.260;2022-10-19T03:11:30;6.00;;;2.28;;
75647;SDS011;64238;51.466;7.260;2022-10-19T03:13:55;5.65;;;2.47;;
75647;SDS011;64238;51.466;7.260;2022-10-19T03:16:21;5.68;;;2.40;;
75647;SDS011;64238;51.466;7.260;2022-10-19T03:18:47;5.80;;;2.47;;
75647;SDS011;64238;51.466;7.260;2022-10-19T03:21:13;5.50;;;2.30;;
75647;SDS011;64238;51.466;7.260;2022-10-19T03:23:39;5.45;;;2.15;;
75647;SDS011;64238;51.466;7.260;2022-10-19T03:26:05;5.53;;;2.58;;
75647;SDS011;64238;51.466;7.260;2022-10-19T03:28:32;5.63;;;2.33;;
75647;SDS011;64238;51.466;7.260;2022-10-19T03:30:58;5.38;;;2.50;;
75647;SDS011;64238;51.466;7.260;2022-10-19T03:33:23;5.75;;;2.63;;
75647;SDS011;64238;51.466;7.260;2022-10-19T03:35:50;5.55;;;2.47;;
75647;SDS011;64238;51.466;7.260;2022-10-19T03:38:35;6.30;;;2.40;;
75647;SDS011;64238;51.466;7.260;2022-10-19T03:41:04;6.18;;;2.70;;
75647;SDS011;64238;51.466;7.260;2022-10-19T03:43:30;5.50;;;2.35;;
75647;SDS011;64238;51.466;7.260;2022-10-19T03:45:55;5.07;;;2.20;;
75647;SDS011;64238;51.466;7.260;2022-10-19T03:48:21;5.45;;;2.33;;
75647;SDS011;64238;51.466;7.260;2022-10-19T03:50:46;5.65;;;2.70;;
75647;SDS011;64238;51.466;7.260;2022-10-19T03:53:12;6.22;;;2.70;;
75647;SDS011;64238;51.466;7.260;2022-10-19T03:55:38;5.38;;;2.40;;
75647;SDS011;64238;51.466;7.260;2022-10-19T03:58:04;5.50;;;2.45;;
75647;SDS011;64238;51.466;7.260;2022-10-19T04:00:29;5.88;;;2.72;;
75647;SDS011;64238;51.466;7.260;2022-10-19T04:02:55;5.55;;;2.40;;
75647;SDS011;64238;51.466;7.260;2022-10-19T04:05:20;5.55;;;2.50;;
75647;SDS011;64238;51.466;7.260;2022-10-19T04:07:46;5.38;;;2.30;;
75647;SDS011;64238;51.466;7.260;2022-10-19T04:10:11;6.65;;;2.70;;
75647;SDS011;64238;51.466;7.260;2022-10-19T04:12:37;6.60;;;2.63;;
75647;SDS011;64238;51.466;7.260;2022-10-19T04:15:03;5.80;;;2.40;;
75647;SDS011;64238;51.466;7.260;2022-10-19T04:17:28;5.70;;;2.53;;
75647;SDS011;64238;51.466;7.260;2022-10-19T04:19:54;6.93;;;2.58;;
75647;SDS011;64238;51.466;7.260;2022-10-19T04:22:19;5.93;;;2.38;;
75647;SDS011;64238;51.466;7.260;2022-10-19T04:24:45;4.80;;;2.20;;
75647;SDS011;64238;51.466;7.260;2022-10-19T04:27:10;6.10;;;2.55;;
75647;SDS011;64238;51.466;7.260;2022-10-19T04:29:36;5.43;;;2.40;;
75647;SDS011;64238;51.466;7.260;2022-10-19T04:32:02;5.43;;;2.50;;
75647;SDS011;64238;51.466;7.260;2022-10-19T04:34:27;4.75;;;2.30;;
75647;SDS011;64238;51.466;7.260;2022-10-19T04:36:53;5.32;;;2.45;;
75647;SDS011;64238;51.466;7.260;2022-10-19T04:39:18;5.32;;;2.58;;
75647;SDS011;64238;51.466;7.260;2022-10-19T04:41:44;5.50;;;2.53;;
75647;SDS011;64238;51.466;7.260;2022-10-19T04:44:09;5.53;;;2.75;;
75647;SDS011;64238;51.466;7.260;2022-10-19T04:46:35;4.95;;;2.20;;
75647;SDS011;64238;51.466;7.260;2022-10-19T04:49:01;5.95;;;2.53;;
75647;SDS011;64238;51.466;7.260;2022-10-19T04:51:29;5.53;;;2.40;;
75647;SDS011;64238;51.466;7.260;2022-10-19T04:53:55;5.20;;;2.13;;
75647;SDS011;64238;51.466;7.260;2022-10-19T04:56:22;6.50;;;2.47;;
75647;SDS011;64238;51.466;7.260;2022-10-19T04:58:55;5.72;;;2.50;;
75647;SDS011;64238;51.466;7.260;2022-10-19T05:01:21;5.82;;;2.47;;
75647;SDS011;64238;51.466;7.260;2022-10-19T05:03:52;6.05;;;2.60;;
75647;SDS011;64238;51.466;7.260;2022-10-19T05:06:18;5.70;;;2.50;;
75647;SDS011;64238;51.466;7.260;2022-10-19T05:08:44;5.13;;;2.30;;
75647;SDS011;64238;51.466;7.260;2022-10-19T05:11:13;5.20;;;2.60;;
75647;SDS011;64238;51.466;7.260;2022-10-19T05:13:40;5.82;;;2.70;;
75647;SDS011;64238;51.466;7.260;2022-10-19T05:16:07;6.40;;;2.70;;
75647;SDS011;64238;51.466;7.260;2022-10-19T05:18:36;5.20;;;2.50;;
75647;SDS011;64238;51.466;7.260;2022-10-19T05:23:32;5.47;;;2.30;;
75647;SDS011;64238;51.466;7.260;2022-10-19T05:26:20;6.10;;;2.58;;
75647;SDS011;64238;51.466;7.260;2022-10-19T05:28:51;5.43;;;2.45;;
75647;SDS011;64238;51.466;7.260;2022-10-19T05:31:24;8.02;;;2.63;;
75647;SDS011;64238;51.466;7.260;2022-10-19T05:33:51;5.97;;;2.80;;
75647;SDS011;64238;51.466;7.260;2022-10-19T05:36:18;5.95;;;2.60;;
75647;SDS011;64238;51.466;7.260;2022-10-19T05:38:47;6.20;;;2.70;;
75647;SDS011;64238;51.466;7.260;2022-10-19T05:41:14;7.22;;;2.95;;
75647;SDS011;64238;51.466;7.260;2022-10-19T05:43:41;4.97;;;2.25;;
75647;SDS011;64238;51.466;7.260;2022-10-19T05:46:08;6.72;;;2.88;;
75647;SDS011;64238;51.466;7.260;2022-10-19T05:48:35;7.43;;;2.83;;
75647;SDS011;64238;51.466;7.260;2022-10-19T05:51:02;5.90;;;2.40;;
75647;SDS011;64238;51.466;7.260;2022-10-19T05:53:29;7.00;;;2.60;;
75647;SDS011;64238;51.466;7.260;2022-10-19T05:55:55;7.30;;;2.58;;
75647;SDS011;64238;51.466;7.260;2022-10-19T05:58:21;5.20;;;2.65;;
75647;SDS011;64238;51.466;7.260;2022-10-19T06:00:51;6.20;;;2.55;;
75647;SDS011;64238;51.466;7.260;2022-10-19T06:03:18;7.25;;;2.75;;
75647;SDS011;64238;51.466;7.260;2022-10-19T06:05:44;6.70;;;2.50;;
75647;SDS011;64238;51.466;7.260;2022-10-19T06:08:09;8.55;;;2.60;;
75647;SDS011;64238;51.466;7.260;2022-10-19T06:10:35;6.95;;;3.08;;
75647;SDS011;64238;51.466;7.260;2022-10-19T06:13:00;6.60;;;2.70;;
75647;SDS011;64238;51.466;7.260;2022-10-19T06:15:26;6.68;;;3.00;;
75647;SDS011;64238;51.466;7.260;2022-10-19T06:17:51;5.60;;;2.47;;
75647;SDS011;64238;51.466;7.260;2022-10-19T06:20:17;6.32;;;2.38;;
75647;SDS011;64238;51.466;7.260;2022-10-19T06:22:42;6.10;;;2.60;;
75647;SDS011;64238;51.466;7.260;2022-10-19T06:25:08;6.18;;;2.38;;
75647;SDS011;64238;51.466;7.260;2022-10-19T06:27:33;7.72;;;2.80;;
75647;SDS011;64238;51.466;7.260;2022-10-19T06:29:59;6.95;;;2.92;;
75647;SDS011;64238;51.466;7.260;2022-10-19T06:32:24;5.05;;;2.40;;
75647;SDS011;64238;51.466;7.260;2022-10-19T06:34:50;5.75;;;2.65;;
75647;SDS011;64238;51.466;7.260;2022-10-19T06:37:15;8.15;;;3.17;;
75647;SDS011;64238;51.466;7.260;2022-10-19T06:39:41;7.10;;;2.67;;
75647;SDS011;64238;51.466;7.260;2022-10-19T06:42:06;6.65;;;2.88;;
75647;SDS011;64238;51.466;7.260;2022-10-19T06:44:33;6.35;;;2.78;;
75647;SDS011;64238;51.466;7.260;2022-10-19T06:46:59;6.63;;;2.67;;
75647;SDS011;64238;51.466;7.260;2022-10-19T06:49:24;5.32;;;2.42;;
75647;SDS011;64238;51.466;7.260;2022-10-19T06:51:50;6.07;;;2.72;;
75647;SDS011;64238;51.466;7.260;2022-10-19T06:54:15;7.18;;;2.58;;
75647;SDS011;64238;51.466;7.260;2022-10-19T06:56:41;5.57;;;2.50;;
75647;SDS011;64238;51.466;7.260;2022-10-19T06:59:06;5.68;;;2.42;;
75647;SDS011;64238;51.466;7.260;2022-10-19T07:01:32;5.03;;;2.35;;
75647;SDS011;64238;51.466;7.260;2022-10-19T07:03:57;6.55;;;2.72;;
75647;SDS011;64238;51.466;7.260;2022-10-19T07:06:25;6.45;;;2.78;;
75647;SDS011;64238;51.466;7.260;2022-10-19T07:08:51;6.28;;;2.65;;
75647;SDS011;64238;51.466;7.260;2022-10-19T07:11:18;5.72;;;2.58;;
75647;SDS011;64238;51.466;7.260;2022-10-19T07:13:44;6.15;;;2.50;;
75647;SDS011;64238;51.466;7.260;2022-10-19T07:16:11;6.00;;;2.55;;
75647;SDS011;64238;51.466;7.260;2022-10-19T07:18:39;5.78;;;2.40;;
75647;SDS011;64238;51.466;7.260;2022-10-19T07:21:06;5.72;;;2.47;;
75647;SDS011;64238;51.466;7.260;2022-10-19T07:23:35;7.15;;;2.72;;
75647;SDS011;64238;51.466;7.260;2022-10-19T07:26:05;6.35;;;2.80;;
75647;SDS011;64238;51.466;7.260;2022-10-19T07:28:33;5.70;;;2.60;;
75647;SDS011;64238;51.466;7.260;2022-10-19T07:31:02;6.78;;;3.03;;
75647;SDS011;64238;51.466;7.260;2022-10-19T07:33:30;5.68;;;2.80;;
75647;SDS011;64238;51.466;7.260;2022-10-19T07:35:59;6.28;;;2.90;;
75647;SDS011;64238;51.466;7.260;2022-10-19T07:38:26;6.80;;;2.40;;
75647;SDS011;64238;51.466;7.260;2022-10-19T07:41:04;5.88;;;3.13;;
75647;SDS011;64238;51.466;7.260;2022-10-19T07:43:36;6.82;;;3.08;;
75647;SDS011;64238;51.466;7.260;2022-10-19T07:46:04;6.32;;;2.78;;
75647;SDS011;64238;51.466;7.260;2022-10-19T07:48:32;6.28;;;2.60;;
75647;SDS011;64238;51.466;7.260;2022-10-19T07:50:59;5.63;;;2.95;;
75647;SDS011;64238;51.466;7.260;2022-10-19T07:53:26;6.60;;;3.08;;
75647;SDS011;64238;51.466;7.260;2022-10-19T07:55:52;6.13;;;2.88;;
75647;SDS011;64238;51.466;7.260;2022-10-19T07:58:17;7.70;;;3.08;;
75647;SDS011;64238;51.466;7.260;2022-10-19T08:00:43;5.70;;;2.90;;
75647;SDS011;64238;51.466;7.260;2022-10-19T08:03:09;6.88;;;3.08;;
75647;SDS011;64238;51.466;7.260;2022-10-19T08:05:35;9.13;;;2.90;;
75647;SDS011;64238;51.466;7.260;2022-10-19T08:08:01;6.65;;;2.92;;
75647;SDS011;64238;51.466;7.260;2022-10-19T08:10:26;6.97;;;3.30;;
75647;SDS011;64238;51.466;7.260;2022-10-19T08:12:52;7.25;;;2.90;;
75647;SDS011;64238;51.466;7.260;2022-10-19T08:15:18;6.38;;;3.00;;
75647;SDS011;64238;51.466;7.260;2022-10-19T08:17:43;6.97;;;2.88;;
75647;SDS011;64238;51.466;7.260;2022-10-19T08:20:09;7.63;;;3.33;;
75647;SDS011;64238;51.466;7.260;2022-10-19T08:22:35;6.57;;;3.08;;
75647;SDS011;64238;51.466;7.260;2022-10-19T08:25:00;8.73;;;3.30;;
75647;SDS011;64238;51.466;7.260;2022-10-19T08:27:26;8.00;;;3.08;;
75647;SDS011;64238;51.466;7.260;2022-10-19T08:29:53;7.45;;;3.22;;
75647;SDS011;64238;51.466;7.260;2022-10-19T08:32:19;7.13;;;3.25;;
75647;SDS011;64238;51.466;7.260;2022-10-19T08:34:44;6.18;;;2.97;;
75647;SDS011;64238;51.466;7.260;2022-10-19T08:37:10;7.55;;;3.35;;
75647;SDS011;64238;51.466;7.260;2022-10-19T08:39:36;7.32;;;3.30;;
75647;SDS011;64238;51.466;7.260;2022-10-19T08:42:03;6.43;;;3.22;;
75647;SDS011;64238;51.466;7.260;2022-10-19T08:44:46;7.93;;;3.40;;
75647;SDS011;64238;51.466;7.260;2022-10-19T08:47:27;8.15;;;3.33;;
75647;SDS011;64238;51.466;7.260;2022-10-19T08:49:56;6.38;;;3.35;;
75647;SDS011;64238;51.466;7.260;2022-10-19T08:52:23;7.63;;;3.08;;
75647;SDS011;64238;51.466;7.260;2022-10-19T08:55:19;6.82;;;2.97;;
75647;SDS011;64238;51.466;7.260;2022-10-19T08:57:54;6.95;;;3.38;;
75647;SDS011;64238;51.466;7.260;2022-10-19T09:00:53;10.35;;;3.33;;
75647;SDS011;64238;51.466;7.260;2022-10-19T09:03:37;9.65;;;3.25;;
75647;SDS011;64238;51.466;7.260;2022-10-19T09:09:34;7.10;;;3.22;;
75647;SDS011;64238;51.466;7.260;2022-10-19T09:12:09;7.78;;;3.30;;
75647;SDS011;64238;51.466;7.260;2022-10-19T09:14:55;10.98;;;3.70;;
75647;SDS011;64238;51.466;7.260;2022-10-19T09:17:25;7.90;;;3.47;;
75647;SDS011;64238;51.466;7.260;2022-10-19T09:19:51;8.00;;;3.38;;
75647;SDS011;64238;51.466;7.260;2022-10-19T09:24:54;8.50;;;3.35;;
75647;SDS011;64238;51.466;7.260;2022-10-19T09:27:32;7.72;;;3.67;;
75647;SDS011;64238;51.466;7.260;2022-10-19T09:30:08;6.93;;;2.97;;
75647;SDS011;64238;51.466;7.260;2022-10-19T09:32:43;7.93;;;3.65;;
75647;SDS011;64238;51.466;7.260;2022-10-19T09:37:44;8.77;;;3.60;;
75647;SDS011;64238;51.466;7.260;2022-10-19T09:40:33;8.90;;;3.70;;
75647;SDS011;64238;51.466;7.260;2022-10-19T09:42:59;8.63;;;3.30;;
75647;SDS011;64238;51.466;7.260;2022-10-19T09:48:54;6.25;;;3.45;;
75647;SDS011;64238;51.466;7.260;2022-10-19T09:51:01;6.38;;;3.17;;
75647;SDS011;64238;51.466;7.260;2022-10-19T09:53:28;9.90;;;3.65;;
75647;SDS011;64238;51.466;7.260;2022-10-19T09:55:58;8.60;;;3.45;;
75647;SDS011;64238;51.466;7.260;2022-10-19T09:58:28;6.82;;;3.50;;
75647;SDS011;64238;51.466;7.260;2022-10-19T10:00:54;6.65;;;3.40;;
75647;SDS011;64238;51.466;7.260;2022-10-19T10:08:29;8.77;;;3.22;;
75647;SDS011;64238;51.466;7.260;2022-10-19T10:14:22;7.55;;;3.00;;
75647;SDS011;64238;51.466;7.260;2022-10-19T10:17:02;6.70;;;2.90;;
75647;SDS011;64238;51.466;7.260;2022-10-19T10:19:31;7.30;;;2.92;;
75647;SDS011;64238;51.466;7.260;2022-10-19T10:21:58;6.15;;;3.10;;
75647;SDS011;64238;51.466;7.260;2022-10-19T10:24:25;6.85;;;2.60;;
75647;SDS011;64238;51.466;7.260;2022-10-19T10:26:54;6.63;;;2.78;;
75647;SDS011;64238;51.466;7.260;2022-10-19T10:29:28;6.82;;;2.78;;
75647;SDS011;64238;51.466;7.260;2022-10-19T10:34:46;6.32;;;3.00;;
75647;SDS011;64238;51.466;7.260;2022-10-19T10:37:40;6.70;;;2.53;;
75647;SDS011;64238;51.466;7.260;2022-10-19T10:40:23;6.20;;;2.58;;
75647;SDS011;64238;51.466;7.260;2022-10-19T10:42:52;10.35;;;3.08;;
75647;SDS011;64238;51.466;7.260;2022-10-19T10:45:30;8.00;;;2.50;;
75647;SDS011;64238;51.466;7.260;2022-10-19T10:47:58;7.93;;;2.78;;
75647;SDS011;64238;51.466;7.260;2022-10-19T10:50:33;6.13;;;2.80;;
75647;SDS011;64238;51.466;7.260;2022-10-19T10:53:01;8.95;;;2.85;;
75647;SDS011;64238;51.466;7.260;2022-10-19T10:55:30;8.43;;;2.72;;
75647;SDS011;64238;51.466;7.260;2022-10-19T10:58:17;6.95;;;2.20;;
75647;SDS011;64238;51.466;7.260;2022-10-19T11:00:46;8.52;;;2.53;;
75647;SDS011;64238;51.466;7.260;2022-10-19T11:03:26;6.72;;;2.20;;
75647;SDS011;64238;51.466;7.260;2022-10-19T11:05:57;6.50;;;2.10;;
75647;SDS011;64238;51.466;7.260;2022-10-19T11:08:31;6.93;;;2.00;;
75647;SDS011;64238;51.466;7.260;2022-10-19T11:11:22;5.93;;;2.10;;
75647;SDS011;64238;51.466;7.260;2022-10-19T11:16:46;6.47;;;2.10;;
75647;SDS011;64238;51.466;7.260;2022-10-19T11:19:19;6.53;;;2.50;;
75647;SDS011;64238;51.466;7.260;2022-10-19T11:21:58;7.30;;;2.70;;
75647;SDS011;64238;51.466;7.260;2022-10-19T11:27:51;7.03;;;2.40;;
75647;SDS011;64238;51.466;7.260;2022-10-19T11:30:31;6.13;;;2.30;;
75647;SDS011;64238;51.466;7.260;2022-10-19T11:33:24;6.78;;;2.95;;
75647;SDS011;64238;51.466;7.260;2022-10-19T11:36:03;6.88;;;2.42;;
75647;SDS011;64238;51.466;7.260;2022-10-19T11:38:59;9.10;;;2.70;;
75647;SDS011;64238;51.466;7.260;2022-10-19T11:47:16;6.20;;;2.60;;
75647;SDS011;64238;51.466;7.260;2022-10-19T11:50:00;6.18;;;2.42;;
75647;SDS011;64238;51.466;7.260;2022-10-19T11:55:18;6.28;;;2.22;;
75647;SDS011;64238;51.466;7.260;2022-10-19T12:01:07;6.68;;;2.47;;
75647;SDS011;64238;51.466;7.260;2022-10-19T12:03:56;5.68;;;2.20;;
75647;SDS011;64238;51.466;7.260;2022-10-19T12:06:58;5.90;;;2.30;;
75647;SDS011;64238;51.466;7.260;2022-10-19T12:12:21;6.10;;;2.22;;
75647;SDS011;64238;51.466;7.260;2022-10-19T12:14:49;5.95;;;2.15;;
75647;SDS011;64238;51.466;7.260;2022-10-19T12:17:19;5.65;;;2.47;;
75647;SDS011;64238;51.466;7.260;2022-10-19T12:19:50;6.03;;;2.60;;
75647;SDS011;64238;51.466;7.260;2022-10-19T12:22:21;5.45;;;2.15;;
75647;SDS011;64238;51.466;7.260;2022-10-19T12:24:51;6.75;;;2.45;;
75647;SDS011;64238;51.466;7.260;2022-10-19T12:27:22;7.28;;;2.15;;
75647;SDS011;64238;51.466;7.260;2022-10-19T12:29:54;6.15;;;2.40;;
75647;SDS011;64238;51.466;7.260;2022-10-19T12:32:27;5.47;;;2.13;;
75647;SDS011;64238;51.466;7.260;2022-10-19T12:34:58;7.40;;;2.25;;
75647;SDS011;64238;51.466;7.260;2022-10-19T12:38:03;5.45;;;2.30;;
75647;SDS011;64238;51.466;7.260;2022-10-19T12:40:45;6.82;;;2.30;;
75647;SDS011;64238;51.466;7.260;2022-10-19T12:46:07;5.35;;;1.90;;
75647;SDS011;64238;51.466;7.260;2022-10-19T12:48:43;6.55;;;2.00;;
75647;SDS011;64238;51.466;7.260;2022-10-19T12:51:10;6.85;;;2.35;;
75647;SDS011;64238;51.466;7.260;2022-10-19T12:53:44;5.43;;;1.92;;
75647;SDS011;64238;51.466;7.260;2022-10-19T13:01:54;7.47;;;2.08;;
75647;SDS011;64238;51.466;7.260;2022-10-19T13:04:07;5.32;;;2.05;;
75647;SDS011;64238;51.466;7.260;2022-10-19T13:09:35;5.95;;;2.10;;
75647;SDS011;64238;51.466;7.260;2022-10-19T13:27:41;7.40;;;2.15;;
75647;SDS011;64238;51.466;7.260;2022-10-19T13:30:56;5.68;;;1.98;;
75647;SDS011;64238;51.466;7.260;2022-10-19T13:41:14;5.80;;;1.63;;
75647;SDS011;64238;51.466;7.260;2022-10-19T13:57:17;5.68;;;2.13;;
75647;SDS011;64238;51.466;7.260;2022-10-19T14:03:00;7.07;;;2.00;;
75647;SDS011;64238;51.466;7.260;2022-10-19T14:11:46;5.53;;;1.90;;
75647;SDS011;64238;51.466;7.260;2022-10-19T14:14:16;5.18;;;2.25;;
75647;SDS011;64238;51.466;7.260;2022-10-19T14:16:49;6.43;;;2.15;;
75647;SDS011;64238;51.466;7.260;2022-10-19T14:19:24;6.40;;;2.05;;
75647;SDS011;64238;51.466;7.260;2022-10-19T14:22:18;5.30;;;1.85;;
75647;SDS011;64238;51.466;7.260;2022-10-19T14:25:01;5.60;;;2.03;;
75647;SDS011;64238;51.466;7.260;2022-10-19T14:27:29;6.20;;;2.20;;
75647;SDS011;64238;51.466;7.260;2022-10-19T14:29:55;4.75;;;2.00;;
75647;SDS011;64238;51.466;7.260;2022-10-19T14:32:23;6.03;;;1.95;;
75647;SDS011;64238;51.466;7.260;2022-10-19T14:34:50;5.03;;;1.80;;
75647;SDS011;64238;51.466;7.260;2022-10-19T14:37:20;5.05;;;1.92;;
75647;SDS011;64238;51.466;7.260;2022-10-19T14:42:46;11.90;;;2.30;;
75647;SDS011;64238;51.466;7.260;2022-10-19T14:45:17;8.20;;;1.95;;
75647;SDS011;64238;51.466;7.260;2022-10-19T14:47:53;6.75;;;1.80;;
75647;SDS011;64238;51.466;7.260;2022-10-19T14:55:44;4.63;;;1.80;;
75647;SDS011;64238;51.466;7.260;2022-10-19T14:58:12;4.88;;;1.92;;
75647;SDS011;64238;51.466;7.260;2022-10-19T15:00:43;5.20;;;2.10;;
75647;SDS011;64238;51.466;7.260;2022-10-19T15:03:13;5.13;;;2.03;;
75647;SDS011;64238;51.466;7.260;2022-10-19T15:05:46;6.00;;;2.30;;
75647;SDS011;64238;51.466;7.260;2022-10-19T15:08:18;7.45;;;1.95;;
75647;SDS011;64238;51.466;7.260;2022-10-19T15:11:07;7.03;;;2.30;;
75647;SDS011;64238;51.466;7.260;2022-10-19T15:13:56;4.47;;;1.65;;
75647;SDS011;64238;51.466;7.260;2022-10-19T15:16:45;6.32;;;2.00;;
75647;SDS011;64238;51.466;7.260;2022-10-19T15:24:38;6.47;;;1.90;;
75647;SDS011;64238;51.466;7.260;2022-10-19T15:27:09;5.72;;;2.25;;
75647;SDS011;64238;51.466;7.260;2022-10-19T15:29:45;5.25;;;1.55;;
75647;SDS011;64238;51.466;7.260;2022-10-19T15:32:23;4.95;;;1.67;;
75647;SDS011;64238;51.466;7.260;2022-10-19T15:34:53;6.47;;;1.92;;
75647;SDS011;64238;51.466;7.260;2022-10-19T15:37:20;5.32;;;2.00;;
75647;SDS011;64238;51.466;7.260;2022-10-19T15:39:47;5.05;;;1.80;;
75647;SDS011;64238;51.466;7.260;2022-10-19T15:50:46;5.50;;;1.73;;
75647;SDS011;64238;51.466;7.260;2022-10-19T15:53:13;6.25;;;2.25;;
75647;SDS011;64238;51.466;7.260;2022-10-19T15:55:39;4.75;;;1.98;;
75647;SDS011;64238;51.466;7.260;2022-10-19T15:58:05;6.93;;;1.85;;
75647;SDS011;64238;51.466;7.260;2022-10-19T16:00:30;5.60;;;2.28;;
75647;SDS011;64238;51.466;7.260;2022-10-19T16:02:56;4.68;;;2.10;;
75647;SDS011;64238;51.466;7.260;2022-10-19T16:05:22;5.80;;;2.25;;
75647;SDS011;64238;51.466;7.260;2022-10-19T16:07:48;4.80;;;1.92;;
75647;SDS011;64238;51.466;7.260;2022-10-19T16:10:15;6.07;;;2.28;;
75647;SDS011;64238;51.466;7.260;2022-10-19T16:12:51;5.95;;;2.20;;
75647;SDS011;64238;51.466;7.260;2022-10-19T16:15:18;5.13;;;2.08;;
75647;SDS011;64238;51.466;7.260;2022-10-19T16:17:49;5.68;;;2.03;;
75647;SDS011;64238;51.466;7.260;2022-10-19T16:20:17;5.00;;;2.00;;
75647;SDS011;64238;51.466;7.260;2022-10-19T16:22:43;5.03;;;1.92;;
75647;SDS011;64238;51.466;7.260;2022-10-19T16:25:10;5.07;;;2.08;;
75647;SDS011;64238;51.466;7.260;2022-10-19T16:27:36;5.78;;;1.95;;
75647;SDS011;64238;51.466;7.260;2022-10-19T16:30:03;7.88;;;2.05;;
75647;SDS011;64238;51.466;7.260;2022-10-19T16:32:29;6.60;;;2.60;;
75647;SDS011;64238;51.466;7.260;2022-10-19T16:34:55;4.55;;;2.10;;
75647;SDS011;64238;51.466;7.260;2022-10-19T16:37:20;6.30;;;2.30;;
75647;SDS011;64238;51.466;7.260;2022-10-19T16:39:46;5.15;;;2.25;;
75647;SDS011;64238;51.466;7.260;2022-10-19T16:42:11;5.38;;;2.20;;
75647;SDS011;64238;51.466;7.260;2022-10-19T16:44:37;4.85;;;2.22;;
75647;SDS011;64238;51.466;7.260;2022-10-19T16:47:02;5.45;;;2.00;;
75647;SDS011;64238;51.466;7.260;2022-10-19T16:49:29;6.68;;;2.08;;
75647;SDS011;64238;51.466;7.260;2022-10-19T16:51:55;6.05;;;2.00;;
75647;SDS011;64238;51.466;7.260;2022-10-19T16:54:21;4.90;;;2.03;;
75647;SDS011;64238;51.466;7.260;2022-10-19T16:56:47;5.13;;;1.90;;
75647;SDS011;64238;51.466;7.260;2022-10-19T16:59:13;5.75;;;2.00;;
75647;SDS011;64238;51.466;7.260;2022-10-19T17:01:41;6.40;;;2.55;;
75647;SDS011;64238;51.466;7.260;2022-10-19T17:04:08;4.47;;;1.80;;
75647;SDS011;64238;51.466;7.260;2022-10-19T17:06:35;5.60;;;1.90;;
75647;SDS011;64238;51.466;7.260;2022-10-19T17:09:01;4.45;;;1.52;;
75647;SDS011;64238;51.466;7.260;2022-10-19T17:11:28;4.05;;;1.67;;
75647;SDS011;64238;51.466;7.260;2022-10-19T17:13:56;6.28;;;2.10;;
75647;SDS011;64238;51.466;7.260;2022-10-19T17:16:24;5.20;;;1.65;;
75647;SDS011;64238;51.466;7.260;2022-10-19T17:18:52;5.53;;;1.70;;
75647;SDS011;64238;51.466;7.260;2022-10-19T17:21:20;4.90;;;1.80;;
75647;SDS011;64238;51.466;7.260;2022-10-19T17:23:50;6.45;;;1.80;;
75647;SDS011;64238;51.466;7.260;2022-10-19T17:26:17;4.95;;;1.58;;
75647;SDS011;64238;51.466;7.260;2022-10-19T17:28:43;4.70;;;1.80;;
75647;SDS011;64238;51.466;7.260;2022-10-19T17:31:10;5.88;;;2.05;;